createdAt,value
2022-12-31T00:01:01.087Z,66.63
2022-12-31T00:03:34.926Z,67.12
2022-12-31T00:06:18.226Z,67.32
2022-12-31T00:08:51.432Z,67.67
2022-12-31T00:11:24.896Z,68.10
2022-12-31T00:13:57.875Z,68.44
2022-12-31T00:16:32.523Z,68.78
2022-12-31T00:19:03.564Z,68.40
2022-12-31T00:21:37.044Z,68.55
2022-12-31T00:24:12.289Z,68.47
2022-12-31T00:26:47.487Z,68.61
2022-12-31T00:29:20.229Z,68.52
2022-12-31T00:31:52.768Z,68.45
2022-12-31T00:34:25.248Z,69.09
2022-12-31T00:36:57.810Z,68.70
2022-12-31T00:39:30.558Z,68.84
2022-12-31T00:42:03.145Z,68.80
2022-12-31T00:44:35.851Z,69.00
2022-12-31T00:47:08.335Z,69.06
2022-12-31T00:49:42.258Z,69.00
2022-12-31T00:52:15.961Z,68.81
2022-12-31T00:54:48.542Z,68.93
2022-12-31T00:57:21.022Z,69.37
2022-12-31T00:59:53.313Z,68.92
2022-12-31T01:02:25.814Z,69.24
2022-12-31T01:04:58.470Z,69.42
2022-12-31T01:07:30.838Z,69.62
2022-12-31T01:10:03.690Z,69.56
2022-12-31T01:12:38.219Z,69.47
2022-12-31T01:15:12.017Z,69.70
2022-12-31T01:17:44.324Z,69.59
2022-12-31T01:20:16.706Z,69.61
2022-12-31T01:22:49.173Z,69.33
2022-12-31T01:25:21.743Z,69.23
2022-12-31T01:27:54.804Z,69.33
2022-12-31T01:30:27.483Z,68.99
2022-12-31T01:33:00.137Z,69.25
2022-12-31T01:35:35.015Z,69.78
2022-12-31T01:38:07.650Z,69.43
2022-12-31T01:40:42.041Z,69.26
2022-12-31T01:43:19.157Z,69.39
2022-12-31T01:45:55.828Z,70.22
2022-12-31T01:48:29.331Z,70.06
2022-12-31T01:51:02.365Z,70.40
2022-12-31T01:53:37.294Z,70.06
2022-12-31T01:56:13.288Z,70.13
2022-12-31T01:58:48.881Z,70.10
2022-12-31T02:01:27.004Z,70.63
2022-12-31T02:04:02.030Z,71.13
2022-12-31T02:06:36.596Z,71.26
2022-12-31T02:09:10.341Z,70.97
2022-12-31T02:11:43.271Z,71.22
2022-12-31T02:14:18.639Z,71.18
2022-12-31T02:16:58.814Z,71.25
2022-12-31T02:20:15.170Z,71.30
2022-12-31T02:22:53.964Z,71.58
2022-12-31T02:25:31.132Z,71.77
2022-12-31T02:28:14.897Z,71.35
2022-12-31T02:30:49.279Z,71.66
2022-12-31T02:33:24.019Z,71.60
2022-12-31T02:35:56.597Z,71.63
2022-12-31T02:38:30.172Z,72.02
2022-12-31T02:41:01.705Z,72.03
2022-12-31T02:43:35.145Z,72.46
2022-12-31T02:46:09.794Z,72.07
2022-12-31T02:48:45.639Z,72.40
2022-12-31T02:51:31.221Z,72.44
2022-12-31T02:54:09.035Z,72.70
2022-12-31T02:56:43.961Z,73.10
2022-12-31T02:59:33.497Z,72.91
2022-12-31T03:02:16.388Z,73.29
2022-12-31T03:04:50.395Z,73.65
2022-12-31T03:07:23.266Z,73.36
2022-12-31T03:09:54.465Z,73.65
2022-12-31T03:12:44.534Z,73.98
2022-12-31T03:15:22.651Z,73.71
2022-12-31T03:17:58.791Z,73.29
2022-12-31T03:20:48.593Z,73.96
2022-12-31T03:23:21.769Z,74.48
2022-12-31T03:25:53.492Z,73.77
2022-12-31T03:28:26.078Z,74.11
2022-12-31T03:30:58.357Z,73.79
2022-12-31T03:33:31.415Z,74.09
2022-12-31T03:36:05.240Z,74.28
2022-12-31T03:38:35.965Z,74.30
2022-12-31T03:41:08.471Z,74.00
2022-12-31T03:43:40.034Z,74.15
2022-12-31T03:46:13.062Z,74.05
2022-12-31T03:48:45.286Z,73.91
2022-12-31T03:51:16.940Z,74.40
2022-12-31T03:53:47.892Z,74.21
2022-12-31T03:56:21.345Z,73.97
2022-12-31T03:58:52.613Z,74.02
2022-12-31T04:01:26.735Z,74.63
2022-12-31T04:03:57.684Z,74.44
2022-12-31T04:06:28.438Z,73.86
2022-12-31T04:08:59.278Z,73.99
2022-12-31T04:11:30.035Z,74.53
2022-12-31T04:14:00.952Z,74.17
2022-12-31T04:16:32.396Z,74.32
2022-12-31T04:19:03.734Z,74.19
2022-12-31T04:21:35.446Z,74.62
2022-12-31T04:24:07.157Z,74.60
2022-12-31T04:26:40.508Z,74.98
2022-12-31T04:29:12.350Z,74.78
2022-12-31T04:31:43.264Z,74.76
2022-12-31T04:34:14.173Z,74.65
2022-12-31T04:36:45.364Z,75.04
2022-12-31T04:39:16.190Z,74.97
2022-12-31T04:41:47.219Z,75.39
2022-12-31T04:44:18.635Z,75.39
2022-12-31T04:46:49.408Z,75.46
2022-12-31T04:49:20.886Z,75.79
2022-12-31T04:51:52.767Z,75.97
2022-12-31T04:54:23.769Z,76.39
2022-12-31T04:56:54.565Z,76.31
2022-12-31T04:59:25.544Z,76.68
2022-12-31T05:01:56.704Z,76.38
2022-12-31T05:04:28.107Z,76.37
2022-12-31T05:06:58.989Z,76.09
2022-12-31T05:09:31.150Z,75.72
2022-12-31T05:12:02.003Z,75.90
2022-12-31T05:14:33.003Z,75.84
2022-12-31T05:17:04.112Z,75.86
2022-12-31T05:19:35.849Z,76.38
2022-12-31T05:22:24.562Z,76.63
2022-12-31T05:24:55.433Z,76.91
2022-12-31T05:27:26.385Z,76.44
2022-12-31T05:29:57.379Z,76.86
2022-12-31T05:32:28.255Z,76.98
2022-12-31T05:34:59.874Z,77.41
2022-12-31T05:37:31.927Z,77.13
2022-12-31T05:40:03.012Z,77.09
2022-12-31T05:42:36.469Z,76.59
2022-12-31T05:45:08.137Z,76.59
2022-12-31T05:47:38.813Z,76.56
2022-12-31T05:50:10.226Z,76.97
2022-12-31T05:52:47.159Z,77.02
2022-12-31T05:55:18.455Z,76.58
2022-12-31T05:57:49.261Z,77.00
2022-12-31T06:00:20.667Z,76.78
2022-12-31T06:02:51.649Z,76.86
2022-12-31T06:05:26.115Z,76.76
2022-12-31T06:07:57.421Z,76.72
2022-12-31T06:10:28.993Z,76.68
2022-12-31T06:13:00.577Z,76.74
2022-12-31T06:15:31.643Z,76.76
2022-12-31T06:18:02.612Z,76.78
2022-12-31T06:20:33.663Z,76.45
2022-12-31T06:23:09.172Z,77.05
2022-12-31T06:25:39.925Z,77.66
2022-12-31T06:28:17.957Z,77.90
2022-12-31T06:30:50.900Z,77.45
2022-12-31T06:33:22.109Z,77.99
2022-12-31T06:35:56.154Z,78.50
2022-12-31T06:38:27.027Z,78.69
2022-12-31T06:40:58.502Z,78.18
2022-12-31T06:43:29.264Z,78.06
2022-12-31T06:46:02.679Z,78.18
2022-12-31T06:48:33.492Z,78.23
2022-12-31T06:51:08.603Z,77.86
2022-12-31T06:53:42.959Z,78.27
2022-12-31T06:56:17.955Z,78.60
2022-12-31T06:58:49.738Z,78.84
2022-12-31T07:01:30.639Z,78.93
2022-12-31T07:04:04.861Z,78.66
2022-12-31T07:06:40.396Z,78.55
2022-12-31T07:09:17.023Z,78.33
2022-12-31T07:11:55.536Z,78.72
2022-12-31T07:14:31.558Z,78.99
2022-12-31T07:17:08.046Z,79.28
2022-12-31T07:19:46.191Z,79.64
2022-12-31T07:22:18.303Z,79.88
2022-12-31T07:24:49.656Z,80.00
2022-12-31T07:27:27.564Z,79.89
2022-12-31T07:30:05.000Z,79.73
2022-12-31T07:32:45.173Z,79.53
2022-12-31T07:35:20.096Z,80.08
2022-12-31T07:37:55.189Z,80.12
2022-12-31T07:40:31.296Z,79.92
2022-12-31T07:43:06.738Z,79.71
2022-12-31T07:45:42.191Z,79.93
2022-12-31T07:48:19.764Z,80.61
2022-12-31T07:50:51.264Z,80.57
2022-12-31T07:53:22.898Z,80.62
2022-12-31T07:55:55.856Z,80.83
2022-12-31T07:58:31.803Z,81.04
2022-12-31T08:01:03.183Z,81.64
2022-12-31T08:03:45.273Z,82.96
2022-12-31T08:06:20.018Z,83.65
2022-12-31T08:08:54.744Z,83.82
2022-12-31T08:11:31.790Z,84.26
2022-12-31T08:14:07.416Z,84.51
2022-12-31T08:16:38.863Z,84.80
2022-12-31T08:19:16.068Z,84.64
2022-12-31T08:21:50.179Z,85.05
2022-12-31T08:24:27.203Z,85.50
2022-12-31T08:27:03.228Z,85.60
2022-12-31T08:29:41.323Z,86.13
2022-12-31T08:32:18.126Z,85.94
2022-12-31T08:34:52.878Z,86.03
2022-12-31T08:37:27.756Z,86.80
2022-12-31T08:40:04.732Z,86.77
2022-12-31T08:42:39.270Z,86.55
2022-12-31T08:45:15.486Z,86.16
2022-12-31T08:47:50.171Z,86.27
2022-12-31T08:50:23.395Z,86.93
2022-12-31T08:52:54.841Z,87.29
2022-12-31T08:55:26.724Z,87.02
2022-12-31T08:58:04.213Z,86.47
2022-12-31T09:00:36.316Z,86.48
2022-12-31T09:03:14.339Z,85.88
2022-12-31T09:05:54.178Z,85.26
2022-12-31T09:08:29.859Z,84.99
2022-12-31T09:11:05.354Z,85.06
2022-12-31T09:13:43.240Z,84.64
2022-12-31T09:16:18.639Z,84.65
2022-12-31T09:18:49.550Z,84.68
2022-12-31T09:21:20.639Z,84.27
2022-12-31T09:23:53.645Z,84.03
2022-12-31T09:26:35.044Z,83.61
2022-12-31T09:29:11.576Z,83.67
2022-12-31T09:31:50.080Z,83.52
2022-12-31T09:34:25.129Z,83.18
2022-12-31T09:36:58.862Z,82.88
2022-12-31T09:39:34.239Z,83.15
2022-12-31T09:42:21.674Z,82.83
2022-12-31T09:45:08.467Z,83.03
2022-12-31T09:48:00.455Z,82.89
2022-12-31T09:50:48.726Z,82.82
2022-12-31T09:53:37.220Z,82.78
2022-12-31T09:56:13.077Z,82.61
2022-12-31T09:58:46.806Z,82.22
2022-12-31T10:01:25.805Z,81.98
2022-12-31T10:04:10.042Z,82.13
2022-12-31T10:06:47.824Z,81.84
2022-12-31T10:09:35.623Z,81.50
2022-12-31T10:12:25.012Z,82.02
2022-12-31T10:15:11.407Z,81.87
2022-12-31T10:17:50.111Z,81.81
2022-12-31T10:20:35.919Z,82.07
2022-12-31T10:23:31.858Z,82.12
2022-12-31T10:26:12.082Z,81.83
2022-12-31T10:28:51.198Z,82.06
2022-12-31T10:31:32.597Z,81.81
2022-12-31T10:34:13.847Z,81.88
2022-12-31T10:36:59.545Z,81.86
2022-12-31T10:39:39.923Z,81.58
2022-12-31T10:42:36.118Z,81.58
2022-12-31T10:45:35.494Z,81.23
2022-12-31T10:51:23.689Z,80.37
2022-12-31T10:54:10.643Z,80.27
2022-12-31T10:57:08.956Z,79.96
2022-12-31T11:00:02.355Z,79.28
2022-12-31T11:02:58.364Z,78.90
2022-12-31T11:05:42.821Z,78.68
2022-12-31T11:08:20.955Z,78.27
2022-12-31T11:11:01.685Z,78.21
2022-12-31T11:13:48.058Z,77.88
2022-12-31T11:16:25.176Z,77.99
2022-12-31T11:19:00.231Z,78.01
2022-12-31T11:21:41.457Z,78.48
2022-12-31T11:24:19.864Z,78.63
2022-12-31T11:26:59.195Z,78.62
2022-12-31T11:29:39.762Z,78.23
2022-12-31T11:32:20.388Z,77.68
2022-12-31T11:35:19.894Z,77.71
2022-12-31T11:37:51.709Z,77.72
2022-12-31T11:40:38.272Z,76.94
2022-12-31T11:43:19.929Z,77.06
2022-12-31T11:46:00.478Z,77.34
2022-12-31T11:48:35.555Z,77.20
2022-12-31T11:51:12.113Z,77.57
2022-12-31T11:53:51.604Z,77.53
2022-12-31T11:56:26.168Z,77.82
2022-12-31T11:58:57.643Z,78.13
2022-12-31T12:01:32.388Z,78.70
2022-12-31T12:04:06.683Z,78.72
2022-12-31T12:06:42.905Z,78.71
2022-12-31T12:09:16.780Z,79.09
2022-12-31T12:11:59.095Z,79.25
2022-12-31T12:14:33.452Z,79.23
2022-12-31T12:17:05.867Z,79.64
2022-12-31T12:19:37.433Z,79.13
2022-12-31T12:22:15.249Z,78.69
2022-12-31T12:24:54.483Z,78.07
2022-12-31T12:27:31.292Z,77.85
2022-12-31T12:30:10.346Z,77.55
2022-12-31T12:32:42.057Z,77.60
2022-12-31T12:35:21.140Z,77.14
2022-12-31T12:38:04.075Z,76.67
2022-12-31T12:40:35.907Z,76.54
2022-12-31T12:43:07.553Z,76.88
2022-12-31T12:45:45.168Z,76.93
2022-12-31T12:48:21.400Z,77.23
2022-12-31T12:50:53.721Z,77.42
2022-12-31T12:53:38.892Z,77.38
2022-12-31T12:56:18.885Z,77.56
2022-12-31T12:58:55.789Z,77.41
2022-12-31T13:01:29.738Z,77.74
2022-12-31T13:04:34.131Z,77.62
2022-12-31T13:07:16.277Z,76.99
2022-12-31T13:09:58.818Z,76.89
2022-12-31T13:12:56.839Z,76.63
2022-12-31T13:15:33.616Z,76.49
2022-12-31T13:18:13.796Z,76.60
2022-12-31T13:20:48.646Z,77.37
2022-12-31T13:23:24.629Z,77.27
2022-12-31T13:26:00.026Z,77.37
2022-12-31T13:28:33.695Z,77.22
2022-12-31T13:31:07.355Z,77.15
2022-12-31T13:33:41.071Z,77.14
2022-12-31T13:36:15.346Z,76.91
2022-12-31T13:38:48.179Z,77.34
2022-12-31T13:41:22.434Z,77.72
2022-12-31T13:43:58.177Z,77.55
2022-12-31T13:46:34.296Z,77.57
2022-12-31T13:49:15.934Z,77.37
2022-12-31T13:51:54.564Z,77.25
2022-12-31T13:54:32.359Z,77.53
2022-12-31T13:57:05.653Z,77.69
2022-12-31T13:59:38.943Z,77.78
2022-12-31T14:02:24.763Z,77.99
2022-12-31T14:05:02.285Z,77.77
2022-12-31T14:07:45.331Z,78.10
2022-12-31T14:10:18.427Z,78.15
2022-12-31T14:12:53.489Z,78.04
2022-12-31T14:15:28.041Z,78.28
2022-12-31T14:18:05.026Z,77.86
2022-12-31T14:20:43.607Z,77.87
2022-12-31T14:23:19.536Z,78.03
2022-12-31T14:25:54.622Z,77.63
2022-12-31T14:28:34.355Z,77.56
2022-12-31T14:31:16.107Z,77.92
2022-12-31T14:33:52.155Z,77.84
2022-12-31T14:36:28.865Z,77.61
2022-12-31T14:39:05.878Z,77.92
2022-12-31T14:41:44.917Z,77.48
2022-12-31T14:44:25.745Z,77.65
2022-12-31T14:47:04.847Z,77.28
2022-12-31T14:50:10.896Z,77.65
2022-12-31T14:53:11.882Z,77.17
2022-12-31T14:56:30.692Z,77.41
2022-12-31T14:59:26.753Z,77.36
2022-12-31T15:02:05.513Z,77.49
2022-12-31T15:04:46.219Z,77.51
2022-12-31T15:07:28.076Z,77.08
2022-12-31T15:10:11.740Z,76.98
2022-12-31T15:12:58.694Z,77.10
2022-12-31T15:15:50.870Z,77.33
2022-12-31T15:18:57.012Z,77.68
2022-12-31T15:24:50.648Z,77.44
2022-12-31T15:27:31.555Z,77.49
2022-12-31T15:30:04.191Z,77.60
2022-12-31T15:32:40.814Z,77.41
2022-12-31T15:38:31.210Z,77.49
2022-12-31T15:41:13.497Z,77.84
2022-12-31T15:43:48.471Z,77.81
2022-12-31T15:46:21.431Z,77.66
2022-12-31T15:49:04.233Z,77.86
2022-12-31T15:51:43.514Z,77.35
2022-12-31T15:54:23.149Z,77.34
2022-12-31T15:56:56.073Z,77.37
2022-12-31T15:59:29.066Z,77.49
2022-12-31T16:02:04.128Z,77.38
2022-12-31T16:04:44.781Z,77.21
2022-12-31T16:07:19.078Z,77.21
2022-12-31T16:09:53.617Z,77.29
2022-12-31T16:12:32.696Z,77.23
2022-12-31T16:15:06.446Z,77.10
2022-12-31T16:17:39.902Z,76.86
2022-12-31T16:20:26.973Z,77.00
2022-12-31T16:23:00.431Z,77.11
2022-12-31T16:25:33.510Z,77.18
2022-12-31T16:28:06.069Z,77.33
2022-12-31T16:30:38.824Z,77.53
2022-12-31T16:33:14.955Z,77.69
2022-12-31T16:35:56.467Z,78.10
2022-12-31T16:38:33.651Z,77.80
2022-12-31T16:41:19.833Z,77.35
2022-12-31T16:43:53.081Z,77.59
2022-12-31T16:46:28.001Z,77.48
2022-12-31T16:49:03.772Z,77.62
2022-12-31T16:51:38.972Z,77.73
2022-12-31T16:54:19.441Z,78.18
2022-12-31T16:56:53.506Z,77.47
2022-12-31T16:59:52.791Z,78.12
2022-12-31T17:02:33.506Z,77.95
2022-12-31T17:05:20.395Z,78.03
2022-12-31T17:07:51.866Z,77.67
2022-12-31T17:10:46.981Z,78.07
2022-12-31T17:13:27.752Z,77.94
2022-12-31T17:16:00.689Z,78.13
2022-12-31T17:18:36.980Z,77.90
2022-12-31T17:21:14.600Z,77.96
2022-12-31T17:23:54.814Z,77.65
2022-12-31T17:26:27.993Z,77.96
2022-12-31T17:29:02.373Z,77.97
2022-12-31T17:31:39.936Z,78.35
2022-12-31T17:34:25.727Z,78.02
2022-12-31T17:37:18.741Z,77.93
2022-12-31T17:39:51.482Z,78.37
2022-12-31T17:42:31.617Z,78.13
2022-12-31T17:45:04.269Z,78.07
2022-12-31T17:47:40.169Z,78.02
2022-12-31T17:50:26.176Z,78.59
2022-12-31T17:53:01.049Z,78.25
2022-12-31T17:55:32.413Z,78.42
2022-12-31T17:58:05.129Z,78.29
2022-12-31T18:00:38.265Z,78.51
2022-12-31T18:03:10.245Z,78.61
2022-12-31T18:05:41.901Z,78.48
2022-12-31T18:08:13.348Z,78.53
2022-12-31T18:10:45.532Z,78.40
2022-12-31T18:13:18.878Z,79.00
2022-12-31T18:15:49.842Z,79.26
2022-12-31T18:18:25.467Z,79.38
2022-12-31T18:21:00.174Z,79.57
2022-12-31T18:23:32.473Z,79.12
2022-12-31T18:26:05.153Z,79.03
2022-12-31T18:28:36.905Z,79.33
2022-12-31T18:31:09.754Z,79.40
2022-12-31T18:33:43.414Z,79.33
2022-12-31T18:36:15.310Z,79.18
2022-12-31T18:38:46.622Z,79.22
2022-12-31T18:41:20.508Z,79.09
2022-12-31T18:43:52.235Z,78.59
2022-12-31T18:46:24.640Z,78.43
2022-12-31T18:48:55.902Z,78.27
2022-12-31T18:51:32.109Z,78.54
2022-12-31T18:54:06.994Z,78.78
2022-12-31T18:56:41.843Z,78.62
2022-12-31T18:59:16.345Z,78.50
2022-12-31T19:01:48.570Z,78.38
2022-12-31T19:04:27.560Z,78.12
2022-12-31T19:07:01.022Z,78.05
2022-12-31T19:09:51.414Z,77.64
2022-12-31T19:12:24.887Z,77.72
2022-12-31T19:14:56.592Z,77.43
2022-12-31T19:17:28.238Z,77.58
2022-12-31T19:20:05.062Z,77.40
2022-12-31T19:22:37.653Z,77.56
2022-12-31T19:25:16.632Z,77.67
2022-12-31T19:27:49.140Z,77.72
2022-12-31T19:30:25.319Z,77.74
2022-12-31T19:32:57.828Z,77.71
2022-12-31T19:35:30.335Z,78.04
2022-12-31T19:38:02.680Z,77.73
2022-12-31T19:40:34.720Z,77.81
2022-12-31T19:43:05.856Z,78.22
2022-12-31T19:45:37.678Z,78.48
2022-12-31T19:48:12.024Z,78.29
2022-12-31T19:50:44.776Z,78.06
2022-12-31T19:53:17.294Z,77.79
2022-12-31T19:55:49.239Z,77.63
2022-12-31T19:58:22.190Z,77.94
2022-12-31T20:00:58.182Z,78.09
2022-12-31T20:03:34.903Z,77.56
2022-12-31T20:06:07.616Z,77.72
2022-12-31T20:08:39.995Z,77.77
2022-12-31T20:11:11.896Z,77.95
2022-12-31T20:13:44.489Z,77.74
2022-12-31T20:16:18.442Z,77.72
2022-12-31T20:18:52.526Z,77.50
2022-12-31T20:21:26.281Z,77.56
2022-12-31T20:24:00.098Z,77.33
2022-12-31T20:26:32.646Z,77.16
2022-12-31T20:29:03.972Z,76.77
2022-12-31T20:31:35.036Z,76.91
2022-12-31T20:34:07.240Z,76.84
2022-12-31T20:36:38.748Z,76.90
2022-12-31T20:39:10.512Z,76.78
2022-12-31T20:41:41.728Z,76.90
2022-12-31T20:44:14.190Z,76.86
2022-12-31T20:46:45.527Z,76.94
2022-12-31T20:49:31.151Z,76.63
2022-12-31T20:52:13.603Z,76.98
2022-12-31T20:54:45.140Z,76.80
2022-12-31T20:57:17.092Z,76.81
2022-12-31T20:59:49.895Z,77.15
2022-12-31T21:02:29.503Z,76.87
2022-12-31T21:05:12.230Z,76.89
2022-12-31T21:07:44.056Z,76.54
2022-12-31T21:10:15.273Z,76.37
2022-12-31T21:12:53.470Z,76.29
2022-12-31T21:15:26.904Z,76.31
2022-12-31T21:18:00.583Z,76.24
2022-12-31T21:20:33.571Z,76.56
2022-12-31T21:23:04.562Z,76.55
2022-12-31T21:25:36.951Z,76.58
2022-12-31T21:28:08.591Z,76.73
2022-12-31T21:30:41.669Z,77.22
2022-12-31T21:33:14.387Z,77.08
2022-12-31T21:35:53.254Z,77.12
2022-12-31T21:38:24.945Z,76.70
2022-12-31T21:40:56.648Z,76.77
2022-12-31T21:43:27.601Z,76.58
2022-12-31T21:46:11.958Z,76.54
2022-12-31T21:48:43.930Z,76.42
2022-12-31T21:51:16.972Z,76.33
2022-12-31T21:53:48.789Z,76.26
2022-12-31T21:56:22.230Z,76.52
2022-12-31T21:59:14.020Z,76.54
2022-12-31T22:02:03.275Z,76.78
2022-12-31T22:07:25.772Z,76.08
2022-12-31T22:09:57.572Z,75.88
2022-12-31T22:12:28.585Z,76.01
2022-12-31T22:15:15.624Z,76.11
2022-12-31T22:17:48.736Z,76.32
2022-12-31T22:20:29.355Z,76.07
2022-12-31T22:23:01.929Z,75.74
2022-12-31T22:25:34.653Z,75.58
2022-12-31T22:30:59.545Z,75.53
2022-12-31T22:33:33.658Z,75.46
2022-12-31T22:36:06.634Z,75.10
2022-12-31T22:38:38.411Z,75.01
2022-12-31T22:41:10.940Z,75.07
2022-12-31T22:43:43.197Z,74.94
2022-12-31T22:46:15.373Z,74.76
2022-12-31T22:48:47.015Z,74.43
2022-12-31T22:51:19.124Z,74.22
2022-12-31T22:53:51.225Z,74.14
2022-12-31T22:56:23.303Z,73.91
2022-12-31T22:58:54.512Z,73.80
2022-12-31T23:01:26.891Z,73.62
2022-12-31T23:03:59.906Z,73.53
2022-12-31T23:06:33.267Z,72.95
2022-12-31T23:09:22.683Z,73.40
2022-12-31T23:11:54.084Z,73.04
2022-12-31T23:14:42.969Z,73.08
2022-12-31T23:17:34.573Z,72.75
2022-12-31T23:20:26.454Z,73.09
2022-12-31T23:23:13.526Z,73.15
2022-12-31T23:25:45.290Z,73.33
2022-12-31T23:28:18.236Z,72.94
2022-12-31T23:30:51.665Z,72.96
2022-12-31T23:33:27.149Z,72.95
2022-12-31T23:36:08.691Z,72.77
2022-12-31T23:38:40.864Z,72.42
2022-12-31T23:41:16.496Z,72.07
2022-12-31T23:43:48.640Z,72.06
2022-12-31T23:46:32.026Z,72.67
2022-12-31T23:49:04.322Z,72.36
2022-12-31T23:51:37.701Z,72.43
2022-12-31T23:54:13.527Z,72.65
2022-12-31T23:56:46.000Z,72.66
2022-12-31T23:59:19.251Z,72.24
